sensor_id;sensor_type;location;lat;lon;timestamp;P1;durP1;ratioP1;P2;durP2;ratioP2
60370;SDS011;48550;40.588;49.684;2023-06-05T00:02:15;13.10;;;8.35;;
60370;SDS011;48550;40.588;49.684;2023-06-05T00:04:41;13.68;;;8.98;;
60370;SDS011;48550;40.588;49.684;2023-06-05T00:07:08;13.43;;;8.52;;
60370;SDS011;48550;40.588;49.684;2023-06-05T00:09:34;18.27;;;9.82;;
60370;SDS011;48550;40.588;49.684;2023-06-05T00:12:00;14.45;;;9.70;;
60370;SDS011;48550;40.588;49.684;2023-06-05T00:14:26;16.27;;;10.02;;
60370;SDS011;48550;40.588;49.684;2023-06-05T00:16:52;13.07;;;8.95;;
60370;SDS011;48550;40.588;49.684;2023-06-05T00:19:17;13.13;;;9.52;;
60370;SDS011;48550;40.588;49.684;2023-06-05T00:21:43;14.73;;;9.05;;
60370;SDS011;48550;40.588;49.684;2023-06-05T00:24:09;12.85;;;9.38;;
60370;SDS011;48550;40.588;49.684;2023-06-05T00:26:35;16.55;;;9.20;;
60370;SDS011;48550;40.588;49.684;2023-06-05T00:29:00;14.02;;;9.38;;
60370;SDS011;48550;40.588;49.684;2023-06-05T00:31:26;15.32;;;9.07;;
60370;SDS011;48550;40.588;49.684;2023-06-05T00:33:52;18.52;;;8.88;;
60370;SDS011;48550;40.588;49.684;2023-06-05T00:36:18;13.38;;;8.68;;
60370;SDS011;48550;40.588;49.684;2023-06-05T00:38:47;11.68;;;9.00;;
60370;SDS011;48550;40.588;49.684;2023-06-05T00:41:15;14.65;;;10.27;;
60370;SDS011;48550;40.588;49.684;2023-06-05T00:43:40;13.75;;;8.57;;
60370;SDS011;48550;40.588;49.684;2023-06-05T00:46:06;14.02;;;8.73;;
60370;SDS011;48550;40.588;49.684;2023-06-05T00:48:33;15.70;;;9.63;;
60370;SDS011;48550;40.588;49.684;2023-06-05T00:51:00;17.45;;;9.77;;
60370;SDS011;48550;40.588;49.684;2023-06-05T00:53:26;20.33;;;10.25;;
60370;SDS011;48550;40.588;49.684;2023-06-05T00:55:53;16.17;;;10.60;;
60370;SDS011;48550;40.588;49.684;2023-06-05T00:58:19;15.82;;;10.60;;
60370;SDS011;48550;40.588;49.684;2023-06-05T01:00:45;17.15;;;10.90;;
60370;SDS011;48550;40.588;49.684;2023-06-05T01:03:14;23.58;;;13.05;;
60370;SDS011;48550;40.588;49.684;2023-06-05T01:05:42;22.58;;;11.63;;
60370;SDS011;48550;40.588;49.684;2023-06-05T01:08:08;17.98;;;11.20;;
60370;SDS011;48550;40.588;49.684;2023-06-05T01:10:37;19.30;;;12.05;;
60370;SDS011;48550;40.588;49.684;2023-06-05T01:13:10;21.33;;;14.18;;
60370;SDS011;48550;40.588;49.684;2023-06-05T01:15:45;21.98;;;12.27;;
60370;SDS011;48550;40.588;49.684;2023-06-05T01:18:13;20.58;;;13.13;;
60370;SDS011;48550;40.588;49.684;2023-06-05T01:20:40;25.08;;;14.40;;
60370;SDS011;48550;40.588;49.684;2023-06-05T01:23:09;21.30;;;12.65;;
60370;SDS011;48550;40.588;49.684;2023-06-05T01:25:35;29.23;;;16.45;;
60370;SDS011;48550;40.588;49.684;2023-06-05T01:36:09;37.13;;;23.05;;
60370;SDS011;48550;40.588;49.684;2023-06-05T01:38:36;39.08;;;23.85;;
60370;SDS011;48550;40.588;49.684;2023-06-05T01:41:04;37.13;;;19.40;;
60370;SDS011;48550;40.588;49.684;2023-06-05T01:43:31;36.15;;;19.05;;
60370;SDS011;48550;40.588;49.684;2023-06-05T01:45:58;31.13;;;18.08;;
60370;SDS011;48550;40.588;49.684;2023-06-05T01:48:25;30.38;;;17.92;;
60370;SDS011;48550;40.588;49.684;2023-06-05T01:50:58;28.25;;;16.17;;
60370;SDS011;48550;40.588;49.684;2023-06-05T01:53:25;28.02;;;14.70;;
60370;SDS011;48550;40.588;49.684;2023-06-05T01:55:52;21.95;;;12.90;;
60370;SDS011;48550;40.588;49.684;2023-06-05T01:58:22;22.77;;;11.32;;
60370;SDS011;48550;40.588;49.684;2023-06-05T02:00:48;22.38;;;12.13;;
60370;SDS011;48550;40.588;49.684;2023-06-05T02:03:14;23.80;;;12.10;;
60370;SDS011;48550;40.588;49.684;2023-06-05T02:05:43;23.80;;;12.52;;
60370;SDS011;48550;40.588;49.684;2023-06-05T02:08:09;23.55;;;11.68;;
60370;SDS011;48550;40.588;49.684;2023-06-05T02:10:36;20.30;;;11.52;;
60370;SDS011;48550;40.588;49.684;2023-06-05T02:13:08;23.45;;;10.75;;
60370;SDS011;48550;40.588;49.684;2023-06-05T02:15:34;17.10;;;10.20;;
60370;SDS011;48550;40.588;49.684;2023-06-05T02:18:01;21.77;;;10.57;;
60370;SDS011;48550;40.588;49.684;2023-06-05T02:20:28;19.27;;;10.60;;
60370;SDS011;48550;40.588;49.684;2023-06-05T02:22:54;15.98;;;10.55;;
60370;SDS011;48550;40.588;49.684;2023-06-05T02:25:20;15.32;;;9.73;;
60370;SDS011;48550;40.588;49.684;2023-06-05T02:27:47;20.80;;;12.70;;
60370;SDS011;48550;40.588;49.684;2023-06-05T02:30:12;17.30;;;9.85;;
60370;SDS011;48550;40.588;49.684;2023-06-05T02:32:39;19.83;;;9.63;;
60370;SDS011;48550;40.588;49.684;2023-06-05T02:35:12;17.65;;;9.18;;
60370;SDS011;48550;40.588;49.684;2023-06-05T02:37:38;19.60;;;11.00;;
60370;SDS011;48550;40.588;49.684;2023-06-05T02:40:12;19.48;;;10.15;;
60370;SDS011;48550;40.588;49.684;2023-06-05T02:42:39;19.88;;;9.25;;
60370;SDS011;48550;40.588;49.684;2023-06-05T02:45:06;16.50;;;9.70;;
60370;SDS011;48550;40.588;49.684;2023-06-05T02:47:33;15.48;;;9.45;;
60370;SDS011;48550;40.588;49.684;2023-06-05T02:49:59;23.70;;;11.40;;
60370;SDS011;48550;40.588;49.684;2023-06-05T02:52:25;22.20;;;10.88;;
60370;SDS011;48550;40.588;49.684;2023-06-05T02:54:53;22.50;;;11.40;;
60370;SDS011;48550;40.588;49.684;2023-06-05T02:57:19;23.75;;;11.43;;
60370;SDS011;48550;40.588;49.684;2023-06-05T02:59:44;20.52;;;12.45;;
60370;SDS011;48550;40.588;49.684;2023-06-05T03:02:10;28.02;;;13.25;;
60370;SDS011;48550;40.588;49.684;2023-06-05T03:04:36;27.88;;;13.77;;
60370;SDS011;48550;40.588;49.684;2023-06-05T03:07:05;22.98;;;13.50;;
60370;SDS011;48550;40.588;49.684;2023-06-05T03:09:34;27.15;;;12.38;;
60370;SDS011;48550;40.588;49.684;2023-06-05T03:12:01;20.30;;;11.43;;
60370;SDS011;48550;40.588;49.684;2023-06-05T03:14:27;14.95;;;8.85;;
60370;SDS011;48550;40.588;49.684;2023-06-05T03:16:52;21.45;;;10.43;;
60370;SDS011;48550;40.588;49.684;2023-06-05T03:19:18;19.23;;;9.85;;
60370;SDS011;48550;40.588;49.684;2023-06-05T03:21:45;18.77;;;9.55;;
60370;SDS011;48550;40.588;49.684;2023-06-05T03:24:13;18.35;;;9.43;;
60370;SDS011;48550;40.588;49.684;2023-06-05T03:26:39;19.95;;;9.23;;
60370;SDS011;48550;40.588;49.684;2023-06-05T03:29:06;16.27;;;8.23;;
60370;SDS011;48550;40.588;49.684;2023-06-05T03:31:32;13.70;;;6.57;;
60370;SDS011;48550;40.588;49.684;2023-06-05T03:33:59;12.77;;;6.13;;
60370;SDS011;48550;40.588;49.684;2023-06-05T03:36:25;12.65;;;6.22;;
60370;SDS011;48550;40.588;49.684;2023-06-05T03:38:53;11.57;;;5.70;;
60370;SDS011;48550;40.588;49.684;2023-06-05T03:41:19;13.43;;;6.03;;
60370;SDS011;48550;40.588;49.684;2023-06-05T03:43:46;30.92;;;7.93;;
60370;SDS011;48550;40.588;49.684;2023-06-05T03:46:12;15.73;;;7.15;;
60370;SDS011;48550;40.588;49.684;2023-06-05T03:48:43;13.30;;;7.43;;
60370;SDS011;48550;40.588;49.684;2023-06-05T03:51:14;11.25;;;6.53;;
60370;SDS011;48550;40.588;49.684;2023-06-05T03:53:43;11.25;;;6.82;;
60370;SDS011;48550;40.588;49.684;2023-06-05T03:56:10;16.48;;;7.60;;
60370;SDS011;48550;40.588;49.684;2023-06-05T03:58:37;12.48;;;7.70;;
60370;SDS011;48550;40.588;49.684;2023-06-05T04:01:06;12.52;;;7.95;;
60370;SDS011;48550;40.588;49.684;2023-06-05T04:03:32;12.23;;;6.78;;
60370;SDS011;48550;40.588;49.684;2023-06-05T04:06:02;14.10;;;7.30;;
60370;SDS011;48550;40.588;49.684;2023-06-05T04:08:30;8.57;;;6.80;;
60370;SDS011;48550;40.588;49.684;2023-06-05T04:10:55;11.38;;;6.85;;
60370;SDS011;48550;40.588;49.684;2023-06-05T04:13:21;15.07;;;5.97;;
60370;SDS011;48550;40.588;49.684;2023-06-05T04:15:47;12.23;;;6.00;;
60370;SDS011;48550;40.588;49.684;2023-06-05T04:18:14;10.65;;;5.88;;
60370;SDS011;48550;40.588;49.684;2023-06-05T04:20:40;10.50;;;6.40;;
60370;SDS011;48550;40.588;49.684;2023-06-05T04:23:05;11.40;;;6.03;;
60370;SDS011;48550;40.588;49.684;2023-06-05T04:25:31;11.32;;;6.32;;
60370;SDS011;48550;40.588;49.684;2023-06-05T04:27:57;15.43;;;6.43;;
60370;SDS011;48550;40.588;49.684;2023-06-05T04:30:23;9.10;;;5.75;;
60370;SDS011;48550;40.588;49.684;2023-06-05T04:32:54;15.55;;;5.65;;
60370;SDS011;48550;40.588;49.684;2023-06-05T04:35:21;11.52;;;6.28;;
60370;SDS011;48550;40.588;49.684;2023-06-05T04:37:47;9.95;;;5.65;;
60370;SDS011;48550;40.588;49.684;2023-06-05T04:40:14;8.45;;;5.53;;
60370;SDS011;48550;40.588;49.684;2023-06-05T04:42:41;7.60;;;5.22;;
60370;SDS011;48550;40.588;49.684;2023-06-05T04:45:07;10.27;;;5.20;;
60370;SDS011;48550;40.588;49.684;2023-06-05T04:47:33;7.95;;;5.45;;
60370;SDS011;48550;40.588;49.684;2023-06-05T04:50:00;10.32;;;5.53;;
60370;SDS011;48550;40.588;49.684;2023-06-05T04:52:29;22.20;;;15.23;;
60370;SDS011;48550;40.588;49.684;2023-06-05T04:54:55;20.73;;;14.80;;
60370;SDS011;48550;40.588;49.684;2023-06-05T04:57:22;13.30;;;4.95;;
60370;SDS011;48550;40.588;49.684;2023-06-05T04:59:51;12.13;;;6.78;;
60370;SDS011;48550;40.588;49.684;2023-06-05T05:02:17;8.10;;;5.60;;
60370;SDS011;48550;40.588;49.684;2023-06-05T05:04:43;11.93;;;6.03;;
60370;SDS011;48550;40.588;49.684;2023-06-05T05:07:09;10.05;;;5.00;;
60370;SDS011;48550;40.588;49.684;2023-06-05T05:09:40;10.38;;;5.50;;
60370;SDS011;48550;40.588;49.684;2023-06-05T05:12:07;8.48;;;5.18;;
60370;SDS011;48550;40.588;49.684;2023-06-05T05:14:33;10.05;;;4.90;;
60370;SDS011;48550;40.588;49.684;2023-06-05T05:16:58;7.55;;;4.65;;
60370;SDS011;48550;40.588;49.684;2023-06-05T05:19:26;12.38;;;5.03;;
60370;SDS011;48550;40.588;49.684;2023-06-05T05:21:52;12.15;;;4.95;;
60370;SDS011;48550;40.588;49.684;2023-06-05T05:24:18;9.38;;;5.05;;
60370;SDS011;48550;40.588;49.684;2023-06-05T05:26:44;7.88;;;4.60;;
60370;SDS011;48550;40.588;49.684;2023-06-05T05:29:10;14.07;;;4.68;;
60370;SDS011;48550;40.588;49.684;2023-06-05T05:31:36;9.32;;;4.88;;
60370;SDS011;48550;40.588;49.684;2023-06-05T05:34:01;10.77;;;5.25;;
60370;SDS011;48550;40.588;49.684;2023-06-05T05:36:28;10.90;;;4.65;;
60370;SDS011;48550;40.588;49.684;2023-06-05T05:38:54;11.65;;;5.32;;
60370;SDS011;48550;40.588;49.684;2023-06-05T05:41:20;14.70;;;5.22;;
60370;SDS011;48550;40.588;49.684;2023-06-05T05:43:48;11.60;;;5.40;;
60370;SDS011;48550;40.588;49.684;2023-06-05T05:46:14;9.68;;;4.63;;
60370;SDS011;48550;40.588;49.684;2023-06-05T05:48:40;8.27;;;4.70;;
60370;SDS011;48550;40.588;49.684;2023-06-05T05:51:06;10.82;;;4.45;;
60370;SDS011;48550;40.588;49.684;2023-06-05T05:53:32;10.13;;;4.85;;
60370;SDS011;48550;40.588;49.684;2023-06-05T05:55:58;9.75;;;5.60;;
60370;SDS011;48550;40.588;49.684;2023-06-05T05:58:25;9.50;;;4.82;;
60370;SDS011;48550;40.588;49.684;2023-06-05T06:00:51;9.88;;;6.68;;
60370;SDS011;48550;40.588;49.684;2023-06-05T06:03:17;7.90;;;4.93;;
60370;SDS011;48550;40.588;49.684;2023-06-05T06:05:44;9.40;;;4.60;;
60370;SDS011;48550;40.588;49.684;2023-06-05T06:08:10;12.93;;;5.13;;
60370;SDS011;48550;40.588;49.684;2023-06-05T06:10:37;7.68;;;4.97;;
60370;SDS011;48550;40.588;49.684;2023-06-05T06:13:03;9.10;;;4.90;;
60370;SDS011;48550;40.588;49.684;2023-06-05T06:15:32;8.85;;;4.60;;
60370;SDS011;48550;40.588;49.684;2023-06-05T06:17:58;9.82;;;4.80;;
60370;SDS011;48550;40.588;49.684;2023-06-05T06:20:27;10.23;;;4.72;;
60370;SDS011;48550;40.588;49.684;2023-06-05T06:22:54;8.68;;;4.88;;
60370;SDS011;48550;40.588;49.684;2023-06-05T06:25:20;9.98;;;4.72;;
60370;SDS011;48550;40.588;49.684;2023-06-05T06:27:46;12.02;;;4.95;;
60370;SDS011;48550;40.588;49.684;2023-06-05T06:30:15;11.13;;;4.90;;
60370;SDS011;48550;40.588;49.684;2023-06-05T06:32:42;9.30;;;5.72;;
60370;SDS011;48550;40.588;49.684;2023-06-05T06:35:08;8.55;;;5.32;;
60370;SDS011;48550;40.588;49.684;2023-06-05T06:37:34;8.18;;;5.45;;
60370;SDS011;48550;40.588;49.684;2023-06-05T06:40:01;8.55;;;4.95;;
60370;SDS011;48550;40.588;49.684;2023-06-05T06:42:26;14.48;;;5.13;;
60370;SDS011;48550;40.588;49.684;2023-06-05T06:44:53;8.63;;;5.55;;
60370;SDS011;48550;40.588;49.684;2023-06-05T06:47:24;10.43;;;5.35;;
60370;SDS011;48550;40.588;49.684;2023-06-05T06:49:50;9.98;;;5.18;;
60370;SDS011;48550;40.588;49.684;2023-06-05T06:52:16;11.98;;;5.18;;
60370;SDS011;48550;40.588;49.684;2023-06-05T06:54:44;8.38;;;5.00;;
60370;SDS011;48550;40.588;49.684;2023-06-05T06:57:09;8.63;;;4.68;;
60370;SDS011;48550;40.588;49.684;2023-06-05T06:59:35;9.98;;;4.72;;
60370;SDS011;48550;40.588;49.684;2023-06-05T07:02:08;8.15;;;4.68;;
60370;SDS011;48550;40.588;49.684;2023-06-05T07:04:36;11.77;;;4.70;;
60370;SDS011;48550;40.588;49.684;2023-06-05T07:07:03;12.73;;;4.75;;
60370;SDS011;48550;40.588;49.684;2023-06-05T07:09:29;12.88;;;4.55;;
60370;SDS011;48550;40.588;49.684;2023-06-05T07:11:55;7.90;;;4.78;;
60370;SDS011;48550;40.588;49.684;2023-06-05T07:14:21;11.45;;;6.68;;
60370;SDS011;48550;40.588;49.684;2023-06-05T07:16:47;9.60;;;4.82;;
60370;SDS011;48550;40.588;49.684;2023-06-05T07:19:14;10.32;;;4.30;;
60370;SDS011;48550;40.588;49.684;2023-06-05T07:21:41;13.25;;;5.55;;
60370;SDS011;48550;40.588;49.684;2023-06-05T07:24:07;12.27;;;4.10;;
60370;SDS011;48550;40.588;49.684;2023-06-05T07:26:33;10.55;;;4.80;;
60370;SDS011;48550;40.588;49.684;2023-06-05T07:28:59;10.13;;;4.35;;
60370;SDS011;48550;40.588;49.684;2023-06-05T07:31:25;12.20;;;4.22;;
60370;SDS011;48550;40.588;49.684;2023-06-05T07:33:51;9.45;;;4.05;;
60370;SDS011;48550;40.588;49.684;2023-06-05T07:36:17;8.85;;;5.63;;
60370;SDS011;48550;40.588;49.684;2023-06-05T07:38:43;7.72;;;4.60;;
60370;SDS011;48550;40.588;49.684;2023-06-05T07:41:10;7.75;;;4.25;;
60370;SDS011;48550;40.588;49.684;2023-06-05T07:43:36;12.27;;;4.70;;
60370;SDS011;48550;40.588;49.684;2023-06-05T07:46:05;9.38;;;4.22;;
60370;SDS011;48550;40.588;49.684;2023-06-05T07:48:31;10.15;;;4.72;;
60370;SDS011;48550;40.588;49.684;2023-06-05T07:50:57;9.50;;;5.18;;
60370;SDS011;48550;40.588;49.684;2023-06-05T07:53:22;9.38;;;4.90;;
60370;SDS011;48550;40.588;49.684;2023-06-05T07:55:48;11.27;;;4.90;;
60370;SDS011;48550;40.588;49.684;2023-06-05T07:58:15;10.50;;;4.93;;
60370;SDS011;48550;40.588;49.684;2023-06-05T08:00:42;11.80;;;4.88;;
60370;SDS011;48550;40.588;49.684;2023-06-05T08:03:08;12.80;;;5.13;;
60370;SDS011;48550;40.588;49.684;2023-06-05T08:05:35;11.57;;;5.93;;
60370;SDS011;48550;40.588;49.684;2023-06-05T08:08:01;14.20;;;5.63;;
60370;SDS011;48550;40.588;49.684;2023-06-05T08:10:27;10.15;;;5.60;;
60370;SDS011;48550;40.588;49.684;2023-06-05T08:12:53;17.38;;;6.82;;
60370;SDS011;48550;40.588;49.684;2023-06-05T08:15:19;10.02;;;5.75;;
60370;SDS011;48550;40.588;49.684;2023-06-05T08:17:44;14.00;;;6.05;;
60370;SDS011;48550;40.588;49.684;2023-06-05T08:20:10;10.95;;;6.38;;
60370;SDS011;48550;40.588;49.684;2023-06-05T08:22:36;13.15;;;5.93;;
60370;SDS011;48550;40.588;49.684;2023-06-05T08:25:06;10.95;;;5.40;;
60370;SDS011;48550;40.588;49.684;2023-06-05T08:27:32;11.00;;;5.50;;
60370;SDS011;48550;40.588;49.684;2023-06-05T08:29:58;17.60;;;5.95;;
60370;SDS011;48550;40.588;49.684;2023-06-05T08:32:24;12.05;;;6.03;;
60370;SDS011;48550;40.588;49.684;2023-06-05T08:34:50;10.85;;;5.57;;
60370;SDS011;48550;40.588;49.684;2023-06-05T08:37:16;12.85;;;5.60;;
60370;SDS011;48550;40.588;49.684;2023-06-05T08:39:42;8.85;;;6.13;;
60370;SDS011;48550;40.588;49.684;2023-06-05T08:42:08;10.18;;;5.68;;
60370;SDS011;48550;40.588;49.684;2023-06-05T08:44:35;9.60;;;5.55;;
60370;SDS011;48550;40.588;49.684;2023-06-05T08:47:02;9.30;;;5.50;;
60370;SDS011;48550;40.588;49.684;2023-06-05T08:49:28;16.02;;;8.00;;
60370;SDS011;48550;40.588;49.684;2023-06-05T08:52:01;10.75;;;6.10;;
60370;SDS011;48550;40.588;49.684;2023-06-05T08:54:39;16.05;;;6.97;;
60370;SDS011;48550;40.588;49.684;2023-06-05T08:57:06;11.10;;;6.18;;
60370;SDS011;48550;40.588;49.684;2023-06-05T08:59:33;11.88;;;5.93;;
60370;SDS011;48550;40.588;49.684;2023-06-05T09:01:59;11.32;;;7.90;;
60370;SDS011;48550;40.588;49.684;2023-06-05T09:04:25;13.55;;;6.95;;
60370;SDS011;48550;40.588;49.684;2023-06-05T09:06:58;12.63;;;7.20;;
60370;SDS011;48550;40.588;49.684;2023-06-05T09:09:25;16.98;;;7.07;;
60370;SDS011;48550;40.588;49.684;2023-06-05T09:12:07;12.50;;;6.32;;
60370;SDS011;48550;40.588;49.684;2023-06-05T09:14:37;8.93;;;6.25;;
60370;SDS011;48550;40.588;49.684;2023-06-05T09:17:02;11.73;;;6.95;;
60370;SDS011;48550;40.588;49.684;2023-06-05T09:19:49;13.90;;;6.72;;
60370;SDS011;48550;40.588;49.684;2023-06-05T09:22:16;14.48;;;7.15;;
60370;SDS011;48550;40.588;49.684;2023-06-05T09:24:58;13.52;;;7.35;;
60370;SDS011;48550;40.588;49.684;2023-06-05T09:27:26;11.70;;;6.60;;
60370;SDS011;48550;40.588;49.684;2023-06-05T09:29:52;11.30;;;6.38;;
60370;SDS011;48550;40.588;49.684;2023-06-05T09:32:29;12.48;;;7.15;;
60370;SDS011;48550;40.588;49.684;2023-06-05T09:34:55;12.10;;;6.95;;
60370;SDS011;48550;40.588;49.684;2023-06-05T09:37:32;15.35;;;7.28;;
60370;SDS011;48550;40.588;49.684;2023-06-05T09:40:03;14.52;;;7.47;;
60370;SDS011;48550;40.588;49.684;2023-06-05T09:42:34;16.48;;;7.78;;
60370;SDS011;48550;40.588;49.684;2023-06-05T09:45:00;12.43;;;6.82;;
60370;SDS011;48550;40.588;49.684;2023-06-05T09:47:27;14.88;;;6.90;;
60370;SDS011;48550;40.588;49.684;2023-06-05T09:49:53;10.75;;;7.28;;
60370;SDS011;48550;40.588;49.684;2023-06-05T09:52:20;15.07;;;7.45;;
60370;SDS011;48550;40.588;49.684;2023-06-05T09:54:45;14.18;;;7.78;;
60370;SDS011;48550;40.588;49.684;2023-06-05T09:57:12;13.30;;;8.00;;
60370;SDS011;48550;40.588;49.684;2023-06-05T09:59:52;15.75;;;8.68;;
60370;SDS011;48550;40.588;49.684;2023-06-05T10:02:32;15.80;;;7.57;;
60370;SDS011;48550;40.588;49.684;2023-06-05T10:05:03;14.15;;;7.60;;
60370;SDS011;48550;40.588;49.684;2023-06-05T10:07:33;13.70;;;7.68;;
60370;SDS011;48550;40.588;49.684;2023-06-05T10:10:04;13.57;;;8.13;;
60370;SDS011;48550;40.588;49.684;2023-06-05T10:12:30;12.85;;;7.88;;
60370;SDS011;48550;40.588;49.684;2023-06-05T10:14:56;12.02;;;7.00;;
60370;SDS011;48550;40.588;49.684;2023-06-05T10:17:22;21.25;;;8.45;;
60370;SDS011;48550;40.588;49.684;2023-06-05T10:19:49;11.77;;;7.13;;
60370;SDS011;48550;40.588;49.684;2023-06-05T10:22:16;11.15;;;7.03;;
60370;SDS011;48550;40.588;49.684;2023-06-05T10:24:44;13.85;;;7.50;;
60370;SDS011;48550;40.588;49.684;2023-06-05T10:27:16;11.85;;;6.72;;
60370;SDS011;48550;40.588;49.684;2023-06-05T10:30:10;11.68;;;7.40;;
60370;SDS011;48550;40.588;49.684;2023-06-05T10:35:48;13.50;;;8.10;;
60370;SDS011;48550;40.588;49.684;2023-06-05T10:38:26;12.75;;;8.00;;
60370;SDS011;48550;40.588;49.684;2023-06-05T10:43:23;14.90;;;7.45;;
60370;SDS011;48550;40.588;49.684;2023-06-05T10:45:56;16.48;;;7.97;;
60370;SDS011;48550;40.588;49.684;2023-06-05T10:51:36;14.73;;;8.23;;
60370;SDS011;48550;40.588;49.684;2023-06-05T10:54:08;16.70;;;7.97;;
60370;SDS011;48550;40.588;49.684;2023-06-05T10:56:54;16.95;;;8.00;;
60370;SDS011;48550;40.588;49.684;2023-06-05T10:59:23;9.85;;;7.22;;
60370;SDS011;48550;40.588;49.684;2023-06-05T11:07:20;11.32;;;7.53;;
60370;SDS011;48550;40.588;49.684;2023-06-05T11:17:37;12.18;;;6.25;;
60370;SDS011;48550;40.588;49.684;2023-06-05T11:20:05;11.82;;;6.68;;
60370;SDS011;48550;40.588;49.684;2023-06-05T11:27:47;11.68;;;6.45;;
60370;SDS011;48550;40.588;49.684;2023-06-05T11:30:44;15.05;;;7.57;;
60370;SDS011;48550;40.588;49.684;2023-06-05T11:33:11;12.38;;;6.93;;
60370;SDS011;48550;40.588;49.684;2023-06-05T11:35:42;13.10;;;6.95;;
60370;SDS011;48550;40.588;49.684;2023-06-05T11:38:13;16.92;;;7.07;;
60370;SDS011;48550;40.588;49.684;2023-06-05T11:40:44;11.48;;;6.35;;
60370;SDS011;48550;40.588;49.684;2023-06-05T11:43:13;15.90;;;8.60;;
60370;SDS011;48550;40.588;49.684;2023-06-05T11:45:41;13.43;;;8.25;;
60370;SDS011;48550;40.588;49.684;2023-06-05T11:48:13;17.85;;;10.88;;
60370;SDS011;48550;40.588;49.684;2023-06-05T11:50:50;16.05;;;6.85;;
60370;SDS011;48550;40.588;49.684;2023-06-05T11:53:18;14.00;;;7.03;;
60370;SDS011;48550;40.588;49.684;2023-06-05T11:55:44;17.70;;;7.00;;
60370;SDS011;48550;40.588;49.684;2023-06-05T11:58:22;11.85;;;7.45;;
60370;SDS011;48550;40.588;49.684;2023-06-05T12:00:50;15.27;;;6.78;;
60370;SDS011;48550;40.588;49.684;2023-06-05T12:03:20;12.25;;;6.60;;
60370;SDS011;48550;40.588;49.684;2023-06-05T12:05:49;27.77;;;10.90;;
60370;SDS011;48550;40.588;49.684;2023-06-05T12:08:24;12.60;;;6.95;;
60370;SDS011;48550;40.588;49.684;2023-06-05T12:10:52;14.95;;;6.72;;
60370;SDS011;48550;40.588;49.684;2023-06-05T12:13:18;15.63;;;6.18;;
60370;SDS011;48550;40.588;49.684;2023-06-05T12:15:57;14.98;;;6.95;;
60370;SDS011;48550;40.588;49.684;2023-06-05T12:18:33;11.55;;;6.68;;
60370;SDS011;48550;40.588;49.684;2023-06-05T12:20:59;12.35;;;6.68;;
60370;SDS011;48550;40.588;49.684;2023-06-05T12:23:27;14.18;;;6.70;;
60370;SDS011;48550;40.588;49.684;2023-06-05T12:26:00;11.45;;;6.13;;
60370;SDS011;48550;40.588;49.684;2023-06-05T12:28:29;17.90;;;6.55;;
60370;SDS011;48550;40.588;49.684;2023-06-05T12:30:56;9.95;;;6.50;;
60370;SDS011;48550;40.588;49.684;2023-06-05T12:33:23;9.57;;;6.07;;
60370;SDS011;48550;40.588;49.684;2023-06-05T12:36:07;14.50;;;6.50;;
60370;SDS011;48550;40.588;49.684;2023-06-05T12:38:38;11.85;;;6.70;;
60370;SDS011;48550;40.588;49.684;2023-06-05T12:41:07;13.73;;;6.57;;
60370;SDS011;48550;40.588;49.684;2023-06-05T12:43:36;11.10;;;6.78;;
60370;SDS011;48550;40.588;49.684;2023-06-05T12:46:04;22.05;;;7.10;;
60370;SDS011;48550;40.588;49.684;2023-06-05T12:48:32;14.23;;;7.30;;
60370;SDS011;48550;40.588;49.684;2023-06-05T12:50:58;15.75;;;6.18;;
60370;SDS011;48550;40.588;49.684;2023-06-05T12:53:24;12.23;;;7.38;;
60370;SDS011;48550;40.588;49.684;2023-06-05T12:55:50;20.40;;;13.23;;
60370;SDS011;48550;40.588;49.684;2023-06-05T12:58:16;46.63;;;31.90;;
60370;SDS011;48550;40.588;49.684;2023-06-05T13:00:42;13.68;;;9.30;;
60370;SDS011;48550;40.588;49.684;2023-06-05T13:03:09;34.83;;;21.58;;
60370;SDS011;48550;40.588;49.684;2023-06-05T13:05:35;29.90;;;18.80;;
60370;SDS011;48550;40.588;49.684;2023-06-05T13:08:01;14.27;;;6.90;;
60370;SDS011;48550;40.588;49.684;2023-06-05T13:10:28;16.20;;;6.70;;
60370;SDS011;48550;40.588;49.684;2023-06-05T13:12:53;17.13;;;9.60;;
60370;SDS011;48550;40.588;49.684;2023-06-05T13:15:19;20.00;;;7.30;;
60370;SDS011;48550;40.588;49.684;2023-06-05T13:17:45;13.25;;;5.80;;
60370;SDS011;48550;40.588;49.684;2023-06-05T13:20:12;10.32;;;7.43;;
60370;SDS011;48550;40.588;49.684;2023-06-05T13:22:39;16.13;;;6.05;;
60370;SDS011;48550;40.588;49.684;2023-06-05T13:25:06;17.20;;;7.07;;
60370;SDS011;48550;40.588;49.684;2023-06-05T13:27:33;20.00;;;6.32;;
60370;SDS011;48550;40.588;49.684;2023-06-05T13:29:59;25.50;;;12.02;;
60370;SDS011;48550;40.588;49.684;2023-06-05T13:32:25;12.85;;;6.47;;
60370;SDS011;48550;40.588;49.684;2023-06-05T13:34:51;12.65;;;6.03;;
60370;SDS011;48550;40.588;49.684;2023-06-05T13:37:18;13.93;;;7.30;;
60370;SDS011;48550;40.588;49.684;2023-06-05T13:39:45;15.05;;;6.95;;
60370;SDS011;48550;40.588;49.684;2023-06-05T13:42:11;13.55;;;6.43;;
60370;SDS011;48550;40.588;49.684;2023-06-05T13:44:37;13.15;;;6.25;;
60370;SDS011;48550;40.588;49.684;2023-06-05T13:47:03;13.80;;;6.20;;
60370;SDS011;48550;40.588;49.684;2023-06-05T13:49:29;14.75;;;5.68;;
60370;SDS011;48550;40.588;49.684;2023-06-05T13:51:56;13.73;;;5.80;;
60370;SDS011;48550;40.588;49.684;2023-06-05T13:54:22;20.90;;;6.38;;
60370;SDS011;48550;40.588;49.684;2023-06-05T13:56:48;11.77;;;5.35;;
60370;SDS011;48550;40.588;49.684;2023-06-05T13:59:14;12.43;;;5.60;;
60370;SDS011;48550;40.588;49.684;2023-06-05T14:01:40;15.38;;;6.10;;
60370;SDS011;48550;40.588;49.684;2023-06-05T14:04:05;10.25;;;5.50;;
60370;SDS011;48550;40.588;49.684;2023-06-05T14:06:31;14.50;;;6.07;;
60370;SDS011;48550;40.588;49.684;2023-06-05T14:08:57;9.95;;;5.15;;
60370;SDS011;48550;40.588;49.684;2023-06-05T14:11:23;19.80;;;6.32;;
60370;SDS011;48550;40.588;49.684;2023-06-05T14:13:49;11.13;;;6.10;;
60370;SDS011;48550;40.588;49.684;2023-06-05T14:16:14;11.93;;;5.45;;
60370;SDS011;48550;40.588;49.684;2023-06-05T14:18:40;20.70;;;5.90;;
60370;SDS011;48550;40.588;49.684;2023-06-05T14:21:06;13.23;;;5.85;;
60370;SDS011;48550;40.588;49.684;2023-06-05T14:23:32;10.98;;;5.90;;
60370;SDS011;48550;40.588;49.684;2023-06-05T14:25:57;18.77;;;6.32;;
60370;SDS011;48550;40.588;49.684;2023-06-05T14:28:23;10.77;;;6.00;;
60370;SDS011;48550;40.588;49.684;2023-06-05T14:30:49;12.25;;;6.63;;
60370;SDS011;48550;40.588;49.684;2023-06-05T14:33:15;19.20;;;6.28;;
60370;SDS011;48550;40.588;49.684;2023-06-05T14:35:44;14.35;;;5.90;;
60370;SDS011;48550;40.588;49.684;2023-06-05T14:38:10;20.52;;;7.05;;
60370;SDS011;48550;40.588;49.684;2023-06-05T14:40:38;15.02;;;6.15;;
60370;SDS011;48550;40.588;49.684;2023-06-05T14:43:04;18.58;;;6.72;;
60370;SDS011;48550;40.588;49.684;2023-06-05T14:45:30;12.27;;;5.95;;
60370;SDS011;48550;40.588;49.684;2023-06-05T14:47:56;16.50;;;6.40;;
60370;SDS011;48550;40.588;49.684;2023-06-05T14:50:22;14.90;;;5.95;;
60370;SDS011;48550;40.588;49.684;2023-06-05T14:52:48;11.05;;;6.35;;
60370;SDS011;48550;40.588;49.684;2023-06-05T14:55:14;11.77;;;6.15;;
60370;SDS011;48550;40.588;49.684;2023-06-05T14:57:40;11.95;;;5.80;;
60370;SDS011;48550;40.588;49.684;2023-06-05T15:00:06;19.10;;;6.78;;